sensor_id;sensor_type;location;lat;lon;timestamp;pressure;altitude;pressure_sealevel;temperature;humidity
11676;BME280;5894;42.768;23.404;2023-03-04T00:01:24;95696.47;;;6.36;100.00
11676;BME280;5894;42.768;23.404;2023-03-04T00:03:51;95698.59;;;6.34;100.00
11676;BME280;5894;42.768;23.404;2023-03-04T00:06:17;95699.72;;;6.22;100.00
11676;BME280;5894;42.768;23.404;2023-03-04T00:08:44;95714.06;;;6.30;100.00
11676;BME280;5894;42.768;23.404;2023-03-04T00:11:11;95718.53;;;6.30;100.00
11676;BME280;5894;42.768;23.404;2023-03-04T00:13:38;95712.00;;;6.27;100.00
11676;BME280;5894;42.768;23.404;2023-03-04T00:16:05;95704.66;;;6.24;100.00
11676;BME280;5894;42.768;23.404;2023-03-04T00:18:34;95692.63;;;6.23;100.00
11676;BME280;5894;42.768;23.404;2023-03-04T00:21:00;95703.34;;;6.32;100.00
11676;BME280;5894;42.768;23.404;2023-03-04T00:23:27;95698.63;;;6.29;100.00
11676;BME280;5894;42.768;23.404;2023-03-04T00:25:54;95676.38;;;6.26;100.00
11676;BME280;5894;42.768;23.404;2023-03-04T00:28:21;95691.22;;;6.41;100.00
11676;BME280;5894;42.768;23.404;2023-03-04T00:30:48;95581.91;;;5.68;100.00
11676;BME280;5894;42.768;23.404;2023-03-04T00:33:15;95693.84;;;6.41;100.00
11676;BME280;5894;42.768;23.404;2023-03-04T00:35:43;95689.16;;;6.38;100.00
11676;BME280;5894;42.768;23.404;2023-03-04T00:38:10;95672.69;;;6.32;100.00
11676;BME280;5894;42.768;23.404;2023-03-04T00:40:37;95684.38;;;6.45;100.00
11676;BME280;5894;42.768;23.404;2023-03-04T00:43:04;95690.66;;;6.49;100.00
11676;BME280;5894;42.768;23.404;2023-03-04T00:45:31;95660.72;;;6.21;100.00
11676;BME280;5894;42.768;23.404;2023-03-04T00:47:58;95678.34;;;6.49;100.00
11676;BME280;5894;42.768;23.404;2023-03-04T00:50:25;95673.38;;;6.48;100.00
11676;BME280;5894;42.768;23.404;2023-03-04T00:52:53;95680.44;;;6.47;100.00
11676;BME280;5894;42.768;23.404;2023-03-04T00:55:20;95675.19;;;6.47;100.00
11676;BME280;5894;42.768;23.404;2023-03-04T00:57:46;95684.63;;;6.48;100.00
11676;BME280;5894;42.768;23.404;2023-03-04T01:00:14;95665.56;;;6.43;100.00
11676;BME280;5894;42.768;23.404;2023-03-04T01:02:41;95676.75;;;6.48;100.00
11676;BME280;5894;42.768;23.404;2023-03-04T01:05:08;95679.13;;;6.50;100.00
11676;BME280;5894;42.768;23.404;2023-03-04T01:07:35;95644.66;;;6.33;100.00
11676;BME280;5894;42.768;23.404;2023-03-04T01:10:05;95675.19;;;6.52;100.00
11676;BME280;5894;42.768;23.404;2023-03-04T01:12:32;95677.00;;;6.52;100.00
11676;BME280;5894;42.768;23.404;2023-03-04T01:14:59;95667.59;;;6.51;100.00
11676;BME280;5894;42.768;23.404;2023-03-04T01:17:26;95665.50;;;6.53;100.00
11676;BME280;5894;42.768;23.404;2023-03-04T01:19:53;95647.69;;;6.45;100.00
11676;BME280;5894;42.768;23.404;2023-03-04T01:22:19;95667.78;;;6.59;100.00
11676;BME280;5894;42.768;23.404;2023-03-04T01:24:46;95660.19;;;6.58;100.00
11676;BME280;5894;42.768;23.404;2023-03-04T01:27:15;95656.00;;;6.57;100.00
11676;BME280;5894;42.768;23.404;2023-03-04T01:29:42;95654.22;;;6.52;100.00
11676;BME280;5894;42.768;23.404;2023-03-04T01:32:09;95642.47;;;6.45;100.00
11676;BME280;5894;42.768;23.404;2023-03-04T01:34:36;95639.66;;;6.36;100.00
11676;BME280;5894;42.768;23.404;2023-03-04T01:37:03;95660.59;;;6.41;100.00
11676;BME280;5894;42.768;23.404;2023-03-04T01:39:30;95629.00;;;6.22;100.00
11676;BME280;5894;42.768;23.404;2023-03-04T01:41:57;95630.88;;;6.17;100.00
11676;BME280;5894;42.768;23.404;2023-03-04T01:44:25;95649.06;;;6.42;100.00
11676;BME280;5894;42.768;23.404;2023-03-04T01:46:53;95647.94;;;6.48;100.00
11676;BME280;5894;42.768;23.404;2023-03-04T01:49:23;95639.56;;;6.46;100.00
11676;BME280;5894;42.768;23.404;2023-03-04T01:51:52;95646.34;;;6.52;100.00
11676;BME280;5894;42.768;23.404;2023-03-04T01:54:19;95642.63;;;6.58;100.00
11676;BME280;5894;42.768;23.404;2023-03-04T01:56:48;95606.44;;;6.32;100.00
11676;BME280;5894;42.768;23.404;2023-03-04T01:59:19;95640.53;;;6.60;100.00
11676;BME280;5894;42.768;23.404;2023-03-04T02:01:49;95641.31;;;6.61;100.00
11676;BME280;5894;42.768;23.404;2023-03-04T02:04:17;95635.53;;;6.64;100.00
11676;BME280;5894;42.768;23.404;2023-03-04T02:06:46;95618.00;;;6.59;100.00
11676;BME280;5894;42.768;23.404;2023-03-04T02:09:14;95625.53;;;6.66;100.00
11676;BME280;5894;42.768;23.404;2023-03-04T02:11:41;95588.28;;;6.40;100.00
11676;BME280;5894;42.768;23.404;2023-03-04T02:14:09;95625.78;;;6.70;100.00
11676;BME280;5894;42.768;23.404;2023-03-04T02:16:37;95609.69;;;6.52;100.00
11676;BME280;5894;42.768;23.404;2023-03-04T02:19:12;95618.53;;;6.61;100.00
11676;BME280;5894;42.768;23.404;2023-03-04T02:21:40;95628.47;;;6.59;100.00
11676;BME280;5894;42.768;23.404;2023-03-04T02:24:14;95626.72;;;6.50;100.00
11676;BME280;5894;42.768;23.404;2023-03-04T02:26:45;95627.75;;;6.54;100.00
11676;BME280;5894;42.768;23.404;2023-03-04T02:29:12;95622.28;;;6.50;100.00
11676;BME280;5894;42.768;23.404;2023-03-04T02:31:42;95619.06;;;6.58;100.00
11676;BME280;5894;42.768;23.404;2023-03-04T02:34:13;95604.19;;;6.54;100.00
11676;BME280;5894;42.768;23.404;2023-03-04T02:36:41;95588.31;;;6.35;100.00
11676;BME280;5894;42.768;23.404;2023-03-04T02:39:11;95619.91;;;6.54;100.00
11676;BME280;5894;42.768;23.404;2023-03-04T02:41:39;95623.84;;;6.51;100.00
11676;BME280;5894;42.768;23.404;2023-03-04T02:44:15;95625.16;;;6.49;100.00
11676;BME280;5894;42.768;23.404;2023-03-04T02:46:43;95626.72;;;6.50;100.00
11676;BME280;5894;42.768;23.404;2023-03-04T02:49:10;95622.56;;;6.44;100.00
11676;BME280;5894;42.768;23.404;2023-03-04T02:51:37;95616.34;;;6.35;100.00
11676;BME280;5894;42.768;23.404;2023-03-04T02:54:04;95616.06;;;6.41;100.00
11676;BME280;5894;42.768;23.404;2023-03-04T02:56:44;95584.00;;;6.15;100.00
11676;BME280;5894;42.768;23.404;2023-03-04T02:59:12;95591.56;;;6.22;100.00
11676;BME280;5894;42.768;23.404;2023-03-04T03:01:39;95571.25;;;6.04;100.00
11676;BME280;5894;42.768;23.404;2023-03-04T03:04:06;95617.97;;;6.31;100.00
11676;BME280;5894;42.768;23.404;2023-03-04T03:06:33;95626.34;;;6.33;100.00
11676;BME280;5894;42.768;23.404;2023-03-04T03:09:00;95621.66;;;6.24;100.00
11676;BME280;5894;42.768;23.404;2023-03-04T03:11:27;95615.59;;;6.29;100.00
11676;BME280;5894;42.768;23.404;2023-03-04T03:13:54;95608.06;;;6.22;100.00
11676;BME280;5894;42.768;23.404;2023-03-04T03:16:23;95621.66;;;6.24;100.00
11676;BME280;5894;42.768;23.404;2023-03-04T03:18:50;95614.28;;;6.32;100.00
11676;BME280;5894;42.768;23.404;2023-03-04T03:21:17;95619.78;;;6.30;100.00
11676;BME280;5894;42.768;23.404;2023-03-04T03:23:44;95580.00;;;5.89;100.00
11676;BME280;5894;42.768;23.404;2023-03-04T03:26:11;95619.97;;;6.00;100.00
11676;BME280;5894;42.768;23.404;2023-03-04T03:28:38;95603.31;;;5.75;100.00
11676;BME280;5894;42.768;23.404;2023-03-04T03:31:04;95610.38;;;5.80;100.00
11676;BME280;5894;42.768;23.404;2023-03-04T03:33:33;95621.84;;;5.84;100.00
11676;BME280;5894;42.768;23.404;2023-03-04T03:36:00;95593.66;;;5.71;100.00
11676;BME280;5894;42.768;23.404;2023-03-04T03:38:27;95609.81;;;5.83;100.00
11676;BME280;5894;42.768;23.404;2023-03-04T03:40:53;95599.66;;;5.76;100.00
11676;BME280;5894;42.768;23.404;2023-03-04T03:43:20;95598.34;;;5.74;100.00
11676;BME280;5894;42.768;23.404;2023-03-04T03:45:47;95613.78;;;5.75;100.00
11676;BME280;5894;42.768;23.404;2023-03-04T03:48:14;95613.81;;;5.70;100.00
11676;BME280;5894;42.768;23.404;2023-03-04T03:50:42;95588.16;;;5.72;100.00
11676;BME280;5894;42.768;23.404;2023-03-04T03:53:10;95597.03;;;5.76;100.00
11676;BME280;5894;42.768;23.404;2023-03-04T03:55:37;95606.66;;;5.86;100.00
11676;BME280;5894;42.768;23.404;2023-03-04T03:58:03;95607.69;;;5.95;100.00
11676;BME280;5894;42.768;23.404;2023-03-04T04:00:30;95600.13;;;5.83;100.00
11676;BME280;5894;42.768;23.404;2023-03-04T04:02:59;95607.81;;;5.70;100.00
11676;BME280;5894;42.768;23.404;2023-03-04T04:05:26;95592.16;;;5.60;100.00
11676;BME280;5894;42.768;23.404;2023-03-04T04:07:54;95596.59;;;5.54;100.00
11676;BME280;5894;42.768;23.404;2023-03-04T04:10:21;95597.09;;;5.61;100.00
11676;BME280;5894;42.768;23.404;2023-03-04T04:12:48;95494.84;;;5.03;100.00
11676;BME280;5894;42.768;23.404;2023-03-04T04:15:14;95575.91;;;5.63;100.00
11676;BME280;5894;42.768;23.404;2023-03-04T04:17:41;95590.75;;;5.72;100.00
11676;BME280;5894;42.768;23.404;2023-03-04T04:20:09;95596.50;;;5.74;100.00
11676;BME280;5894;42.768;23.404;2023-03-04T04:22:36;95575.16;;;5.57;100.00
11676;BME280;5894;42.768;23.404;2023-03-04T04:25:05;95585.31;;;5.64;100.00
11676;BME280;5894;42.768;23.404;2023-03-04T04:27:33;95588.97;;;5.63;100.00
11676;BME280;5894;42.768;23.404;2023-03-04T04:30:00;95521.19;;;5.17;100.00
11676;BME280;5894;42.768;23.404;2023-03-04T04:32:27;95585.31;;;5.64;100.00
11676;BME280;5894;42.768;23.404;2023-03-04T04:34:54;95590.59;;;5.59;100.00
11676;BME280;5894;42.768;23.404;2023-03-04T04:37:21;95578.03;;;5.50;100.00
11676;BME280;5894;42.768;23.404;2023-03-04T04:39:47;95569.00;;;5.23;100.00
11676;BME280;5894;42.768;23.404;2023-03-04T04:42:17;95589.31;;;5.41;100.00
11676;BME280;5894;42.768;23.404;2023-03-04T04:44:44;95595.84;;;5.43;100.00
11676;BME280;5894;42.768;23.404;2023-03-04T04:47:11;95603.00;;;5.28;100.00
11676;BME280;5894;42.768;23.404;2023-03-04T04:49:37;95571.97;;;4.96;100.00
11676;BME280;5894;42.768;23.404;2023-03-04T04:52:04;95593.59;;;5.16;100.00
11676;BME280;5894;42.768;23.404;2023-03-04T04:54:31;95605.63;;;5.18;100.00
11676;BME280;5894;42.768;23.404;2023-03-04T04:56:58;95607.47;;;5.02;100.00
11676;BME280;5894;42.768;23.404;2023-03-04T04:59:26;95610.38;;;4.90;100.00
11676;BME280;5894;42.768;23.404;2023-03-04T05:01:53;95608.31;;;4.87;100.00
11676;BME280;5894;42.768;23.404;2023-03-04T05:04:20;95605.91;;;5.01;100.00
11676;BME280;5894;42.768;23.404;2023-03-04T05:06:47;95604.09;;;5.01;100.00
11676;BME280;5894;42.768;23.404;2023-03-04T05:09:14;95621.34;;;5.02;100.00
11676;BME280;5894;42.768;23.404;2023-03-04T05:11:40;95621.09;;;4.89;100.00
11676;BME280;5894;42.768;23.404;2023-03-04T05:14:07;95615.34;;;4.82;100.00
11676;BME280;5894;42.768;23.404;2023-03-04T05:16:35;95614.56;;;4.71;100.00
11676;BME280;5894;42.768;23.404;2023-03-04T05:19:02;95629.47;;;4.80;100.00
11676;BME280;5894;42.768;23.404;2023-03-04T05:21:29;95634.94;;;4.94;100.00
11676;BME280;5894;42.768;23.404;2023-03-04T05:23:56;95639.66;;;4.92;100.00
11676;BME280;5894;42.768;23.404;2023-03-04T05:26:22;95609.63;;;4.69;100.00
11676;BME280;5894;42.768;23.404;2023-03-04T05:28:49;95639.38;;;4.68;100.00
11676;BME280;5894;42.768;23.404;2023-03-04T05:31:16;95637.06;;;4.62;100.00
11676;BME280;5894;42.768;23.404;2023-03-04T05:33:44;95622.69;;;4.69;100.00
11676;BME280;5894;42.768;23.404;2023-03-04T05:36:11;95638.34;;;4.90;100.00
11676;BME280;5894;42.768;23.404;2023-03-04T05:38:38;95638.59;;;4.93;100.00
11676;BME280;5894;42.768;23.404;2023-03-04T05:41:05;95635.22;;;4.93;100.00
11676;BME280;5894;42.768;23.404;2023-03-04T05:43:33;95649.81;;;4.99;100.00
11676;BME280;5894;42.768;23.404;2023-03-04T05:46:00;95642.28;;;4.97;100.00
11676;BME280;5894;42.768;23.404;2023-03-04T05:48:27;95640.69;;;5.01;100.00
11676;BME280;5894;42.768;23.404;2023-03-04T05:50:57;95630.47;;;5.00;100.00
11676;BME280;5894;42.768;23.404;2023-03-04T05:53:25;95647.69;;;5.21;100.00
11676;BME280;5894;42.768;23.404;2023-03-04T05:55:51;95633.63;;;5.02;100.00
11676;BME280;5894;42.768;23.404;2023-03-04T05:58:19;95650.09;;;5.07;100.00
11676;BME280;5894;42.768;23.404;2023-03-04T06:00:47;95650.06;;;5.12;100.00
11676;BME280;5894;42.768;23.404;2023-03-04T06:03:15;95658.97;;;5.16;100.00
11676;BME280;5894;42.768;23.404;2023-03-04T06:05:42;95648.00;;;5.04;100.00
11676;BME280;5894;42.768;23.404;2023-03-04T06:08:11;95659.22;;;5.15;100.00
11676;BME280;5894;42.768;23.404;2023-03-04T06:10:39;95654.78;;;5.15;100.00
11676;BME280;5894;42.768;23.404;2023-03-04T06:13:06;95655.59;;;5.06;100.00
11676;BME280;5894;42.768;23.404;2023-03-04T06:15:33;95661.84;;;5.10;100.00
11676;BME280;5894;42.768;23.404;2023-03-04T06:18:00;95622.94;;;4.83;100.00
11676;BME280;5894;42.768;23.404;2023-03-04T06:20:27;95662.63;;;5.15;100.00
11676;BME280;5894;42.768;23.404;2023-03-04T06:22:54;95667.03;;;5.35;100.00
11676;BME280;5894;42.768;23.404;2023-03-04T06:25:23;95617.66;;;5.13;100.00
11676;BME280;5894;42.768;23.404;2023-03-04T06:27:50;95658.41;;;5.35;100.00
11676;BME280;5894;42.768;23.404;2023-03-04T06:30:18;95653.13;;;5.50;100.00
11676;BME280;5894;42.768;23.404;2023-03-04T06:32:45;95667.19;;;5.64;100.00
11676;BME280;5894;42.768;23.404;2023-03-04T06:35:13;95665.38;;;5.65;100.00
11676;BME280;5894;42.768;23.404;2023-03-04T06:37:40;95672.69;;;5.68;100.00
11676;BME280;5894;42.768;23.404;2023-03-04T06:40:09;95639.00;;;5.46;100.00
11676;BME280;5894;42.768;23.404;2023-03-04T06:42:37;95629.06;;;5.43;100.00
11676;BME280;5894;42.768;23.404;2023-03-04T06:45:05;95643.16;;;5.52;100.00
11676;BME280;5894;42.768;23.404;2023-03-04T06:47:32;95676.28;;;5.82;100.00
11676;BME280;5894;42.768;23.404;2023-03-04T06:50:00;95672.59;;;5.93;100.00
11676;BME280;5894;42.768;23.404;2023-03-04T06:52:27;95671.03;;;5.97;100.00
11676;BME280;5894;42.768;23.404;2023-03-04T06:54:54;95631.78;;;5.82;100.00
11676;BME280;5894;42.768;23.404;2023-03-04T06:57:21;95671.25;;;6.06;100.00
11676;BME280;5894;42.768;23.404;2023-03-04T06:59:49;95673.28;;;6.14;100.00
11676;BME280;5894;42.768;23.404;2023-03-04T07:02:16;95602.53;;;5.75;100.00
11676;BME280;5894;42.768;23.404;2023-03-04T07:04:43;95653.13;;;6.19;100.00
11676;BME280;5894;42.768;23.404;2023-03-04T07:07:10;95646.19;;;6.34;100.00
11676;BME280;5894;42.768;23.404;2023-03-04T07:09:38;95683.25;;;6.56;100.00
11676;BME280;5894;42.768;23.404;2023-03-04T07:12:05;95649.53;;;6.44;100.00
11676;BME280;5894;42.768;23.404;2023-03-04T07:14:32;95671.19;;;6.60;100.00
11676;BME280;5894;42.768;23.404;2023-03-04T07:17:00;95681.06;;;6.73;100.00
11676;BME280;5894;42.768;23.404;2023-03-04T07:19:27;95671.38;;;6.74;100.00
11676;BME280;5894;42.768;23.404;2023-03-04T07:21:53;95682.50;;;6.89;100.00
11676;BME280;5894;42.768;23.404;2023-03-04T07:24:20;95689.81;;;6.92;100.00
11676;BME280;5894;42.768;23.404;2023-03-04T07:26:47;95699.19;;;6.98;100.00
11676;BME280;5894;42.768;23.404;2023-03-04T07:29:14;95688.97;;;7.02;100.00
11676;BME280;5894;42.768;23.404;2023-03-04T07:31:41;95689.94;;;7.06;100.00
11676;BME280;5894;42.768;23.404;2023-03-04T07:34:12;95690.97;;;7.10;100.00
11676;BME280;5894;42.768;23.404;2023-03-04T07:36:40;95688.81;;;7.17;100.00
11676;BME280;5894;42.768;23.404;2023-03-04T07:39:07;95668.94;;;7.11;100.00
11676;BME280;5894;42.768;23.404;2023-03-04T07:41:37;95692.38;;;7.31;100.00
11676;BME280;5894;42.768;23.404;2023-03-04T07:44:05;95684.50;;;7.31;100.00
11676;BME280;5894;42.768;23.404;2023-03-04T07:46:32;95669.88;;;7.25;100.00
11676;BME280;5894;42.768;23.404;2023-03-04T07:48:59;95561.66;;;6.62;100.00
11676;BME280;5894;42.768;23.404;2023-03-04T07:51:27;95691.00;;;7.63;100.00
11676;BME280;5894;42.768;23.404;2023-03-04T07:53:56;95679.22;;;7.60;100.00
11676;BME280;5894;42.768;23.404;2023-03-04T07:56:25;95677.31;;;7.66;100.00
11676;BME280;5894;42.768;23.404;2023-03-04T07:58:52;95686.84;;;7.81;100.00
11676;BME280;5894;42.768;23.404;2023-03-04T08:01:22;95683.63;;;7.89;100.00
11676;BME280;5894;42.768;23.404;2023-03-04T08:03:49;95690.16;;;7.91;100.00
11676;BME280;5894;42.768;23.404;2023-03-04T08:06:17;95690.66;;;7.93;100.00
11676;BME280;5894;42.768;23.404;2023-03-04T08:08:46;95695.56;;;8.00;100.00
11676;BME280;5894;42.768;23.404;2023-03-04T08:11:15;95697.34;;;8.04;100.00
11676;BME280;5894;42.768;23.404;2023-03-04T08:13:42;95693.81;;;8.14;100.00
11676;BME280;5894;42.768;23.404;2023-03-04T08:16:11;95628.28;;;7.85;100.00
11676;BME280;5894;42.768;23.404;2023-03-04T08:18:40;95658.09;;;8.13;100.00
11676;BME280;5894;42.768;23.404;2023-03-04T08:21:08;95686.13;;;8.41;100.00
11676;BME280;5894;42.768;23.404;2023-03-04T08:23:36;95690.75;;;8.50;100.00
11676;BME280;5894;42.768;23.404;2023-03-04T08:26:07;95676.34;;;8.47;100.00
11676;BME280;5894;42.768;23.404;2023-03-04T08:28:34;95693.16;;;8.65;100.00
11676;BME280;5894;42.768;23.404;2023-03-04T08:31:01;95687.56;;;8.71;100.00
11676;BME280;5894;42.768;23.404;2023-03-04T08:33:30;95690.88;;;8.77;100.00
11676;BME280;5894;42.768;23.404;2023-03-04T08:35:57;95691.44;;;8.74;100.00
11676;BME280;5894;42.768;23.404;2023-03-04T08:38:24;95694.00;;;8.79;100.00
11676;BME280;5894;42.768;23.404;2023-03-04T08:40:52;95691.94;;;8.76;100.00
11676;BME280;5894;42.768;23.404;2023-03-04T08:43:21;95691.44;;;8.74;100.00
11676;BME280;5894;42.768;23.404;2023-03-04T08:45:48;95684.44;;;8.69;100.00
11676;BME280;5894;42.768;23.404;2023-03-04T08:48:15;95693.59;;;8.72;100.00
11676;BME280;5894;42.768;23.404;2023-03-04T08:50:42;95674.91;;;8.55;100.00
11676;BME280;5894;42.768;23.404;2023-03-04T08:53:09;95693.66;;;8.67;100.00
11676;BME280;5894;42.768;23.404;2023-03-04T08:55:37;95693.66;;;8.67;100.00
11676;BME280;5894;42.768;23.404;2023-03-04T08:58:04;95688.19;;;8.63;100.00
11676;BME280;5894;42.768;23.404;2023-03-04T09:00:36;95651.97;;;8.41;100.00
11676;BME280;5894;42.768;23.404;2023-03-04T09:03:04;95684.94;;;8.71;100.00
11676;BME280;5894;42.768;23.404;2023-03-04T09:05:31;95668.22;;;8.62;100.00
11676;BME280;5894;42.768;23.404;2023-03-04T09:07:58;95681.81;;;8.69;100.00
11676;BME280;5894;42.768;23.404;2023-03-04T09:10:25;95689.59;;;8.74;100.00
11676;BME280;5894;42.768;23.404;2023-03-04T09:12:52;95685.06;;;8.80;100.00
11676;BME280;5894;42.768;23.404;2023-03-04T09:15:19;95627.09;;;8.53;100.00
11676;BME280;5894;42.768;23.404;2023-03-04T09:17:47;95680.44;;;8.91;100.00
11676;BME280;5894;42.768;23.404;2023-03-04T09:20:14;95632.41;;;8.66;100.00
11676;BME280;5894;42.768;23.404;2023-03-04T09:22:41;95639.91;;;8.73;100.00
11676;BME280;5894;42.768;23.404;2023-03-04T09:25:10;95645.16;;;8.92;100.00
11676;BME280;5894;42.768;23.404;2023-03-04T09:27:39;95671.31;;;9.15;100.00
11676;BME280;5894;42.768;23.404;2023-03-04T09:30:07;95666.78;;;9.21;100.00
11676;BME280;5894;42.768;23.404;2023-03-04T09:32:34;95615.16;;;8.93;100.00
11676;BME280;5894;42.768;23.404;2023-03-04T09:35:02;95667.19;;;9.42;100.00
11676;BME280;5894;42.768;23.404;2023-03-04T09:37:29;95663.78;;;9.41;100.00
11676;BME280;5894;42.768;23.404;2023-03-04T09:39:56;95670.50;;;9.47;100.00
11676;BME280;5894;42.768;23.404;2023-03-04T09:42:24;95672.84;;;9.49;100.00
11676;BME280;5894;42.768;23.404;2023-03-04T09:44:53;95675.88;;;9.56;100.00
11676;BME280;5894;42.768;23.404;2023-03-04T09:47:22;95637.34;;;9.33;100.00
11676;BME280;5894;42.768;23.404;2023-03-04T09:49:54;95666.81;;;9.48;100.00
11676;BME280;5894;42.768;23.404;2023-03-04T09:52:30;95670.03;;;9.59;100.00
11676;BME280;5894;42.768;23.404;2023-03-04T09:55:04;95664.38;;;9.66;100.00
11676;BME280;5894;42.768;23.404;2023-03-04T09:57:46;95675.38;;;9.68;100.00
11676;BME280;5894;42.768;23.404;2023-03-04T10:00:16;95660.09;;;9.70;100.00
11676;BME280;5894;42.768;23.404;2023-03-04T10:03:03;95653.06;;;9.65;100.00
11676;BME280;5894;42.768;23.404;2023-03-04T10:05:32;95656.31;;;9.76;100.00
11676;BME280;5894;42.768;23.404;2023-03-04T10:08:11;95655.97;;;9.77;100.00
11676;BME280;5894;42.768;23.404;2023-03-04T10:10:41;95589.28;;;9.41;100.00
11676;BME280;5894;42.768;23.404;2023-03-04T10:13:14;95657.47;;;9.83;100.00
11676;BME280;5894;42.768;23.404;2023-03-04T10:15:44;95651.03;;;9.76;100.00
11676;BME280;5894;42.768;23.404;2023-03-04T10:18:17;95640.38;;;9.81;100.00
11676;BME280;5894;42.768;23.404;2023-03-04T10:20:52;95642.31;;;9.89;100.00
11676;BME280;5894;42.768;23.404;2023-03-04T10:23:24;95639.59;;;9.94;100.00
11676;BME280;5894;42.768;23.404;2023-03-04T10:25:51;95640.59;;;9.84;100.00
11676;BME280;5894;42.768;23.404;2023-03-04T10:28:22;95594.16;;;9.61;100.00
11676;BME280;5894;42.768;23.404;2023-03-04T10:30:54;95634.25;;;9.85;100.00
11676;BME280;5894;42.768;23.404;2023-03-04T10:33:25;95614.16;;;9.76;100.00
11676;BME280;5894;42.768;23.404;2023-03-04T10:35:59;95621.53;;;9.87;100.00
11676;BME280;5894;42.768;23.404;2023-03-04T10:38:30;95619.69;;;9.88;100.00
11676;BME280;5894;42.768;23.404;2023-03-04T10:40:58;95615.81;;;9.85;100.00
11676;BME280;5894;42.768;23.404;2023-03-04T10:43:25;95616.97;;;9.93;100.00
11676;BME280;5894;42.768;23.404;2023-03-04T10:45:54;95596.28;;;9.86;100.00
11676;BME280;5894;42.768;23.404;2023-03-04T10:48:25;95607.38;;;9.97;100.00
11676;BME280;5894;42.768;23.404;2023-03-04T10:50:52;95598.22;;;9.94;100.00
11676;BME280;5894;42.768;23.404;2023-03-04T10:53:27;95595.66;;;10.03;100.00
11676;BME280;5894;42.768;23.404;2023-03-04T10:55:56;95597.72;;;10.06;100.00
11676;BME280;5894;42.768;23.404;2023-03-04T10:58:23;95582.13;;;9.96;100.00
11676;BME280;5894;42.768;23.404;2023-03-04T11:00:59;95584.75;;;9.96;100.00
11676;BME280;5894;42.768;23.404;2023-03-04T11:03:32;95558.72;;;9.81;100.00
11676;BME280;5894;42.768;23.404;2023-03-04T11:06:10;95571.09;;;9.94;100.00
11676;BME280;5894;42.768;23.404;2023-03-04T11:08:39;95570.88;;;10.04;100.00
11676;BME280;5894;42.768;23.404;2023-03-04T11:11:22;95567.72;;;10.16;100.00
11676;BME280;5894;42.768;23.404;2023-03-04T11:13:51;95547.63;;;9.84;100.00
11676;BME280;5894;42.768;23.404;2023-03-04T11:16:24;95534.03;;;9.90;100.00
11676;BME280;5894;42.768;23.404;2023-03-04T11:18:53;95553.50;;;10.03;100.00
11676;BME280;5894;42.768;23.404;2023-03-04T11:21:23;95537.41;;;10.05;100.00
11676;BME280;5894;42.768;23.404;2023-03-04T11:23:53;95544.78;;;10.16;100.00
11676;BME280;5894;42.768;23.404;2023-03-04T11:26:27;95545.97;;;10.24;100.00
11676;BME280;5894;42.768;23.404;2023-03-04T11:28:58;95542.31;;;10.34;100.00
11676;BME280;5894;42.768;23.404;2023-03-04T11:31:32;95541.53;;;10.33;100.00
11676;BME280;5894;42.768;23.404;2023-03-04T11:34:02;95528.63;;;10.32;100.00
11676;BME280;5894;42.768;23.404;2023-03-04T11:39:22;95524.69;;;10.43;100.00
11676;BME280;5894;42.768;23.404;2023-03-04T11:41:54;95466.38;;;9.77;100.00
11676;BME280;5894;42.768;23.404;2023-03-04T11:44:23;95503.50;;;10.48;100.00
11676;BME280;5894;42.768;23.404;2023-03-04T11:47:00;95507.41;;;10.59;100.00
11676;BME280;5894;42.768;23.404;2023-03-04T11:52:32;95504.56;;;10.78;100.00
11676;BME280;5894;42.768;23.404;2023-03-04T11:55:12;95508.56;;;10.66;100.00
11676;BME280;5894;42.768;23.404;2023-03-04T11:57:51;95503.16;;;10.80;100.00
11676;BME280;5894;42.768;23.404;2023-03-04T12:00:33;95501.00;;;10.82;100.00
11676;BME280;5894;42.768;23.404;2023-03-04T12:03:32;95481.91;;;10.77;100.00
11676;BME280;5894;42.768;23.404;2023-03-04T12:06:10;95501.88;;;11.00;100.00
11676;BME280;5894;42.768;23.404;2023-03-04T12:08:50;95490.28;;;11.10;100.00
11676;BME280;5894;42.768;23.404;2023-03-04T12:11:26;95492.16;;;11.18;100.00
11676;BME280;5894;42.768;23.404;2023-03-04T12:14:15;95482.41;;;11.27;100.00
11676;BME280;5894;42.768;23.404;2023-03-04T12:22:43;95466.03;;;11.08;100.00
11676;BME280;5894;42.768;23.404;2023-03-04T12:28:25;95476.44;;;11.04;100.00
11676;BME280;5894;42.768;23.404;2023-03-04T12:31:25;95460.38;;;10.92;100.00
11676;BME280;5894;42.768;23.404;2023-03-04T12:34:05;95463.84;;;11.01;100.00
11676;BME280;5894;42.768;23.404;2023-03-04T12:36:43;95454.22;;;10.96;100.00
11676;BME280;5894;42.768;23.404;2023-03-04T12:39:24;95461.53;;;10.99;100.00
11676;BME280;5894;42.768;23.404;2023-03-04T12:42:05;95435.34;;;10.72;100.00
11676;BME280;5894;42.768;23.404;2023-03-04T12:44:37;95451.88;;;10.95;100.00
11676;BME280;5894;42.768;23.404;2023-03-04T12:47:27;95452.19;;;11.02;100.00
11676;BME280;5894;42.768;23.404;2023-03-04T12:50:19;95423.59;;;10.78;100.00
11676;BME280;5894;42.768;23.404;2023-03-04T12:52:56;95447.38;;;10.95;100.00
11676;BME280;5894;42.768;23.404;2023-03-04T12:55:30;95445.53;;;10.96;100.00
11676;BME280;5894;42.768;23.404;2023-03-04T12:58:00;95431.53;;;10.95;100.00
11676;BME280;5894;42.768;23.404;2023-03-04T13:00:37;95416.75;;;10.77;100.00
11676;BME280;5894;42.768;23.404;2023-03-04T13:03:16;95431.09;;;11.02;100.00
11676;BME280;5894;42.768;23.404;2023-03-04T13:05:55;95389.75;;;10.80;100.00
11676;BME280;5894;42.768;23.404;2023-03-04T13:08:37;95421.31;;;11.02;100.00
11676;BME280;5894;42.768;23.404;2023-03-04T13:14:31;95422.88;;;11.03;100.00
11676;BME280;5894;42.768;23.404;2023-03-04T13:17:00;95420.09;;;11.00;100.00
11676;BME280;5894;42.768;23.404;2023-03-04T13:19:44;95415.41;;;10.97;100.00
11676;BME280;5894;42.768;23.404;2023-03-04T13:22:39;95415.41;;;10.97;100.00
11676;BME280;5894;42.768;23.404;2023-03-04T13:25:32;95410.75;;;10.94;100.00
11676;BME280;5894;42.768;23.404;2023-03-04T13:28:21;95409.03;;;10.89;100.00